Time;durP1;ratioP1;P1;durP2;ratioP2;P2;SDS_P1;SDS_P2;PMS_P1;PMS_P2;Temp;Humidity;BMP_temperature;BMP_pressure;BME280_temperature;BME280_humidity;BME280_pressure;Samples;Min_cycle;Max_cycle;Signal;HPM_P1;HPM_P2
2023/01/14 00:02:03;;;;;;;4.20;1.03;;;;;;;6.19;100.00;97229.56;5070683;28;20238;-59
2023/01/14 00:04:31;;;;;;;4.10;1.50;;;;;;;6.14;100.00;97236.91;5069541;28;20224;-59
2023/01/14 00:06:58;;;;;;;3.30;1.33;;;;;;;6.13;100.00;97237.88;5069662;28;20655;-59
2023/01/14 00:09:27;;;;;;;4.17;1.33;;;;;;;6.09;100.00;97229.34;5070458;28;20233;-60
2023/01/14 00:11:53;;;;;;;3.00;1.33;;;;;;;5.96;100.00;97229.31;5070010;28;20329;-59
2023/01/14 00:14:21;;;;;;;3.20;1.40;;;;;;;5.98;100.00;97231.84;5069839;28;20848;-60
2023/01/14 00:16:48;;;;;;;7.40;1.60;;;;;;;5.86;100.00;97238.72;5070145;28;20545;-60
2023/01/14 00:19:15;;;;;;;4.37;1.47;;;;;;;5.76;100.00;97232.34;5070952;28;20204;-60
2023/01/14 00:21:45;;;;;;;5.60;1.47;;;;;;;5.63;100.00;97230.63;5069592;28;20214;-59
2023/01/14 00:24:13;;;;;;;2.03;1.33;;;;;;;5.63;100.00;97231.47;5069653;28;20217;-59
2023/01/14 00:26:42;;;;;;;3.37;1.57;;;;;;;5.50;100.00;97225.31;5070166;28;20198;-59
2023/01/14 00:29:16;;;;;;;5.17;1.57;;;;;;;5.48;100.00;97227.19;5070836;28;20301;-60
2023/01/14 00:31:45;;;;;;;4.67;1.67;;;;;;;5.49;100.00;97223.66;5070322;28;20677;-60
2023/01/14 00:34:12;;;;;;;4.20;1.50;;;;;;;5.40;100.00;97229.47;5070433;28;20233;-59
2023/01/14 00:36:39;;;;;;;4.00;1.20;;;;;;;5.42;100.00;97235.47;5070667;28;20213;-59
2023/01/14 00:39:07;;;;;;;6.07;1.93;;;;;;;5.39;100.00;97233.00;5070104;28;20203;-60
2023/01/14 00:41:34;;;;;;;6.13;1.70;;;;;;;5.46;100.00;97229.06;5069706;28;20218;-60
2023/01/14 00:44:01;;;;;;;5.13;1.47;;;;;;;5.56;100.00;97217.06;5070219;28;20556;-60
2023/01/14 00:46:29;;;;;;;4.83;1.60;;;;;;;5.59;100.00;97221.25;5070030;28;20619;-60
2023/01/14 00:48:55;;;;;;;3.77;1.93;;;;;;;5.62;100.00;97227.16;5070521;28;20595;-59
2023/01/14 00:51:22;;;;;;;4.73;1.80;;;;;;;5.81;100.00;97219.75;5070242;28;20216;-60
2023/01/14 00:53:49;;;;;;;3.00;1.33;;;;;;;5.82;100.00;97221.47;5069737;28;20224;-60
2023/01/14 00:56:18;;;;;;;6.37;1.77;;;;;;;5.91;100.00;97226.16;5069918;28;20210;-59
2023/01/14 00:58:45;;;;;;;4.23;1.57;;;;;;;6.02;100.00;97219.34;5069862;28;20205;-60
2023/01/14 01:01:12;;;;;;;3.27;1.77;;;;;;;6.12;100.00;97217.81;5069811;28;20226;-60
2023/01/14 01:03:40;;;;;;;4.63;1.10;;;;;;;6.12;100.00;97213.41;5069923;28;20226;-59
2023/01/14 01:06:07;;;;;;;4.83;1.73;;;;;;;6.26;100.00;97228.22;5069982;28;20199;-60
2023/01/14 01:08:33;;;;;;;4.83;1.70;;;;;;;6.36;100.00;97229.28;5069789;28;20216;-59
2023/01/14 01:11:00;;;;;;;6.67;1.50;;;;;;;6.47;100.00;97229.41;5069718;28;20210;-61
2023/01/14 01:13:28;;;;;;;5.27;1.50;;;;;;;6.40;100.00;97228.16;5069786;28;20207;-59
2023/01/14 01:16:00;;;;;;;4.70;0.93;;;;;;;6.40;100.00;97233.41;5070324;28;20535;-59
2023/01/14 01:18:26;;;;;;;3.60;1.60;;;;;;;6.41;100.00;97237.72;5070591;28;20234;-60
2023/01/14 01:21:01;;;;;;;6.93;1.63;;;;;;;6.48;100.00;97225.84;5071237;28;20202;-59
2023/01/14 01:23:27;;;;;;;2.47;1.53;;;;;;;6.49;100.00;97222.25;5092312;28;20202;-60
2023/01/14 01:25:59;;;;;;;6.70;1.60;;;;;;;6.49;100.00;97235.38;5094041;28;21341;-60
2023/01/14 01:28:25;;;;;;;4.13;1.30;;;;;;;6.54;100.00;97232.47;5090992;28;20208;-60
2023/01/14 01:30:53;;;;;;;5.80;1.40;;;;;;;6.54;100.00;97222.81;5075453;28;20218;-61
2023/01/14 01:33:20;;;;;;;4.77;1.50;;;;;;;6.50;100.00;97221.31;5074192;28;20209;-60
2023/01/14 01:35:47;;;;;;;5.80;1.37;;;;;;;6.53;100.00;97223.72;5074421;28;20210;-60
2023/01/14 01:38:13;;;;;;;4.53;1.53;;;;;;;6.56;100.00;97228.78;5073635;28;20651;-60
2023/01/14 01:40:39;;;;;;;5.67;1.50;;;;;;;6.49;100.00;97235.38;5073669;28;20226;-60
2023/01/14 01:43:11;;;;;;;2.33;1.30;;;;;;;6.40;100.00;97228.16;5073818;28;20217;-60
2023/01/14 01:45:45;;;;;;;3.97;1.47;;;;;;;6.31;100.00;97234.00;5073659;28;20618;-59
2023/01/14 01:48:16;;;;;;;5.10;1.83;;;;;;;6.27;100.00;97222.03;5073770;28;20207;-61
2023/01/14 01:50:43;;;;;;;3.77;1.40;;;;;;;6.24;100.00;97224.84;5073180;28;20723;-62
2023/01/14 01:53:10;;;;;;;6.20;1.20;;;;;;;6.22;100.00;97234.63;5073294;28;20542;-60
2023/01/14 01:55:39;;;;;;;4.53;1.23;;;;;;;6.10;100.00;97238.91;5072858;28;20203;-59
2023/01/14 01:58:06;;;;;;;4.93;1.30;;;;;;;6.04;100.00;97243.72;5073954;28;21335;-60
2023/01/14 02:00:35;;;;;;;4.80;1.60;;;;;;;5.93;100.00;97233.91;5073285;28;20238;-59
2023/01/14 02:03:05;;;;;;;2.30;1.23;;;;;;;5.81;100.00;97238.13;5072430;28;21024;-60
2023/01/14 02:05:33;;;;;;;4.13;1.40;;;;;;;5.60;100.00;97230.84;5072895;28;20218;-59
2023/01/14 02:08:00;;;;;;;3.47;1.23;;;;;;;5.58;100.00;97233.53;5073508;28;20202;-61
2023/01/14 02:10:36;;;;;;;4.57;1.60;;;;;;;5.42;100.00;97244.16;5072207;28;20198;-60
2023/01/14 02:13:16;;;;;;;2.87;1.47;;;;;;;5.36;100.00;97238.44;5072557;28;20198;-60
2023/01/14 02:15:54;;;;;;;6.73;1.30;;;;;;;5.24;100.00;97234.84;5073377;28;20213;-59
2023/01/14 02:18:31;;;;;;;3.33;1.60;;;;;;;5.23;100.00;97232.31;5072650;28;20260;-60
2023/01/14 02:21:07;;;;;;;5.30;1.70;;;;;;;5.35;100.00;97236.78;5072825;28;20643;-60
2023/01/14 02:24:11;;;;;;;6.07;2.07;;;;;;;5.43;100.00;97224.00;5071809;28;20197;-60
2023/01/14 02:27:31;;;;;;;5.50;1.80;;;;;;;5.45;100.00;97228.25;5072107;28;20202;-60
2023/01/14 02:30:25;;;;;;;4.63;1.40;;;;;;;5.44;100.00;97209.97;5068647;28;20206;-59
2023/01/14 02:32:56;;;;;;;5.93;1.77;;;;;;;5.46;100.00;97223.81;5072469;28;20201;-59
2023/01/14 02:35:39;;;;;;;4.53;1.30;;;;;;;5.46;100.00;97219.41;5071860;28;20764;-59
2023/01/14 02:38:15;;;;;;;5.70;1.83;;;;;;;5.46;100.00;97213.31;5072457;28;20202;-59
2023/01/14 02:40:43;;;;;;;5.53;1.90;;;;;;;5.49;100.00;97210.53;5072253;28;20206;-59
2023/01/14 02:46:02;;;;;;;5.77;1.40;;;;;;;5.46;100.00;97208.06;5071816;28;20217;-59
2023/01/14 02:48:28;;;;;;;4.90;1.30;;;;;;;5.40;100.00;97203.22;5071924;28;20194;-59
2023/01/14 02:50:55;;;;;;;7.47;1.63;;;;;;;5.33;100.00;97201.94;5071758;28;20218;-60
2023/01/14 02:53:22;;;;;;;2.07;1.60;;;;;;;5.31;100.00;97201.22;5072357;28;20198;-60
2023/01/14 02:55:48;;;;;;;3.47;1.60;;;;;;;5.25;100.00;97196.31;5071114;28;20539;-60
2023/01/14 02:58:30;;;;;;;3.97;1.33;;;;;;;5.21;100.00;97205.34;5072128;28;20217;-62
2023/01/14 03:01:09;;;;;;;3.73;1.23;;;;;;;5.10;100.00;97189.44;5070592;28;20571;-60
2023/01/14 03:03:43;;;;;;;2.70;1.17;;;;;;;5.05;100.00;97192.34;5071517;28;20194;-59
2023/01/14 03:06:29;;;;;;;5.20;2.30;;;;;;;5.01;100.00;97199.56;5072154;28;20252;-60
2023/01/14 03:09:00;;;;;;;8.87;1.50;;;;;;;5.00;100.00;97197.03;5071305;28;20297;-60
2023/01/14 03:11:34;;;;;;;5.37;1.43;;;;;;;4.97;100.00;97192.81;5071652;28;20205;-60
2023/01/14 03:14:03;;;;;;;4.10;1.63;;;;;;;4.95;100.00;97180.75;5071747;28;20225;-59
2023/01/14 03:16:35;;;;;;;5.43;1.93;;;;;;;4.99;100.00;97180.44;5071658;28;20226;-60
2023/01/14 03:19:05;;;;;;;6.83;2.00;;;;;;;5.08;100.00;97178.19;5071562;28;20195;-59
2023/01/14 03:21:35;;;;;;;6.73;1.73;;;;;;;5.15;100.00;97175.09;5071613;28;20213;-59
2023/01/14 03:24:06;;;;;;;3.23;1.43;;;;;;;5.21;100.00;97166.84;5070937;28;20698;-60
2023/01/14 03:26:34;;;;;;;4.63;1.53;;;;;;;5.31;100.00;97159.25;5071521;28;20731;-59
2023/01/14 03:29:03;;;;;;;5.90;2.03;;;;;;;5.35;100.00;97176.47;5071909;28;20202;-60
2023/01/14 03:31:33;;;;;;;4.60;1.73;;;;;;;5.41;100.00;97174.28;5071213;28;20202;-60
2023/01/14 03:34:02;;;;;;;4.40;1.37;;;;;;;5.47;100.00;97162.56;5071860;28;20213;-59
2023/01/14 03:36:30;;;;;;;4.87;1.97;;;;;;;5.54;100.00;97166.47;5071336;28;20537;-59
2023/01/14 03:38:59;;;;;;;7.37;1.90;;;;;;;5.63;100.00;97168.50;5071631;28;20213;-59
2023/01/14 03:44:21;;;;;;;5.00;1.80;;;;;;;5.70;100.00;97172.41;5060048;28;20683;-60
2023/01/14 03:46:51;;;;;;;4.10;1.80;;;;;;;5.71;100.00;97174.06;5071647;28;20218;-59
2023/01/14 03:49:18;;;;;;;5.87;1.57;;;;;;;5.79;100.00;97158.66;5071043;28;20218;-60
2023/01/14 03:51:48;;;;;;;5.70;1.90;;;;;;;5.87;100.00;97164.31;5071559;28;20452;-60
2023/01/14 03:54:21;;;;;;;5.63;1.70;;;;;;;5.93;100.00;97169.13;5082689;28;20198;-60
2023/01/14 03:56:53;;;;;;;4.10;1.50;;;;;;;5.92;100.00;97170.06;5072226;28;20440;-60
2023/01/14 03:59:24;;;;;;;9.20;2.27;;;;;;;5.95;100.00;97166.41;5076346;28;20206;-60
2023/01/14 04:01:53;;;;;;;5.10;2.00;;;;;;;5.96;100.00;97161.06;5072458;28;20234;-62
2023/01/14 04:04:20;;;;;;;6.63;1.67;;;;;;;5.97;100.00;97157.50;5072801;28;20593;-59
2023/01/14 04:06:47;;;;;;;3.33;1.50;;;;;;;5.96;100.00;97166.31;5073926;28;20207;-60
2023/01/14 04:09:13;;;;;;;7.03;1.67;;;;;;;5.95;100.00;97163.78;5073438;28;20202;-61
2023/01/14 04:11:41;;;;;;;6.80;2.60;;;;;;;5.98;100.00;97164.44;5073145;28;20205;-60
2023/01/14 04:16:53;;;;;;;5.13;1.63;;;;;;;6.01;100.00;97171.25;5084409;28;20201;-60
2023/01/14 04:19:19;;;;;;;5.53;1.70;;;;;;;6.05;100.00;97164.00;5078082;28;20221;-59
2023/01/14 04:21:46;;;;;;;6.23;4.70;;;;;;;6.10;100.00;97159.28;5071522;28;20206;-59
2023/01/14 04:24:12;;;;;;;6.43;4.10;;;;;;;6.08;100.00;97148.91;5071037;28;20202;-59
2023/01/14 04:26:39;;;;;;;6.53;2.30;;;;;;;6.10;100.00;97143.53;5071104;28;20202;-60
2023/01/14 04:29:05;;;;;;;5.73;2.27;;;;;;;6.09;100.00;97139.25;5071180;28;20215;-59
2023/01/14 04:31:32;;;;;;;4.80;1.70;;;;;;;6.10;100.00;97136.50;5070233;28;20642;-60
2023/01/14 04:34:00;;;;;;;7.57;1.57;;;;;;;6.08;100.00;97133.13;5071138;28;20276;-61
2023/01/14 04:36:26;;;;;;;3.93;1.53;;;;;;;6.08;100.00;97130.50;5071433;28;20206;-60
2023/01/14 04:38:53;;;;;;;4.87;1.90;;;;;;;6.04;100.00;97129.03;5071798;28;20240;-60
2023/01/14 04:44:03;;;;;;;3.93;1.63;;;;;;;6.13;100.00;97131.03;5086692;28;20239;-60
2023/01/14 04:46:29;;;;;;;3.30;1.60;;;;;;;6.16;100.00;97130.84;5089247;28;20217;-61
2023/01/14 04:48:56;;;;;;;3.13;1.87;;;;;;;6.21;100.00;97122.63;5088448;28;20210;-59
2023/01/14 04:51:24;;;;;;;4.63;1.60;;;;;;;6.23;100.00;97126.84;5094102;28;20201;-61
2023/01/14 04:53:50;;;;;;;4.50;1.50;;;;;;;6.31;100.00;97118.44;5094772;28;20181;-60
2023/01/14 04:56:16;;;;;;;6.17;2.20;;;;;;;6.37;100.00;97120.66;5095894;28;20272;-59
2023/01/14 04:58:43;;;;;;;4.83;1.80;;;;;;;6.40;100.00;97110.78;5091441;28;20187;-60
2023/01/14 05:01:09;;;;;;;4.83;1.50;;;;;;;6.43;100.00;97112.34;5074171;28;20242;-59
2023/01/14 05:03:36;;;;;;;4.20;1.57;;;;;;;6.46;100.00;97105.09;5074264;28;20662;-59
2023/01/14 05:06:03;;;;;;;6.80;2.33;;;;;;;6.47;100.00;97108.56;5073404;28;20557;-59
2023/01/14 05:08:31;;;;;;;3.27;1.53;;;;;;;6.49;100.00;97112.75;5074038;28;20225;-60
2023/01/14 05:10:57;;;;;;;6.33;1.73;;;;;;;6.53;100.00;97092.38;5073254;28;20647;-60
2023/01/14 05:13:24;;;;;;;4.70;1.80;;;;;;;6.53;100.00;97096.78;5074757;28;20576;-59
2023/01/14 05:15:50;;;;;;;5.10;1.83;;;;;;;6.53;100.00;97096.78;5076196;28;20210;-60
2023/01/14 05:18:17;;;;;;;4.53;1.97;;;;;;;6.55;100.00;97092.25;5078302;28;20289;-59
2023/01/14 05:20:45;;;;;;;5.80;2.20;;;;;;;6.61;100.00;97100.56;5077900;28;20206;-59
2023/01/14 05:23:14;;;;;;;5.23;1.80;;;;;;;6.69;100.00;97086.88;5077396;28;20616;-59
2023/01/14 05:25:43;;;;;;;5.70;1.70;;;;;;;6.66;100.00;97087.91;5077797;28;20237;-60
2023/01/14 05:28:11;;;;;;;4.87;1.53;;;;;;;6.65;100.00;97088.88;5080048;28;20211;-60
2023/01/14 05:30:37;;;;;;;5.03;1.97;;;;;;;6.66;100.00;97089.72;5077053;28;21095;-59
2023/01/14 05:33:04;;;;;;;7.43;2.10;;;;;;;6.66;100.00;97087.09;5078019;28;20195;-59
2023/01/14 05:35:31;;;;;;;5.20;1.77;;;;;;;6.63;100.00;97088.13;5075608;28;20217;-59
2023/01/14 05:37:58;;;;;;;4.60;1.50;;;;;;;6.60;100.00;97082.25;5073861;28;20212;-61
2023/01/14 05:40:26;;;;;;;2.07;1.03;;;;;;;6.60;100.00;97077.84;5072794;28;20199;-60
2023/01/14 05:45:48;;;;;;;8.57;1.90;;;;;;;6.54;100.00;97072.19;5073266;28;20224;-59
2023/01/14 05:48:15;;;;;;;4.00;1.47;;;;;;;6.55;100.00;97066.00;5072564;28;20882;-60
2023/01/14 05:50:42;;;;;;;3.73;1.63;;;;;;;6.53;100.00;97070.50;5073425;28;20298;-59
2023/01/14 05:53:09;;;;;;;4.30;1.63;;;;;;;6.50;100.00;97061.06;5073267;28;20515;-60
2023/01/14 05:55:36;;;;;;;5.37;1.50;;;;;;;6.50;100.00;97061.91;5073029;28;20203;-60
2023/01/14 05:58:06;;;;;;;3.23;1.57;;;;;;;6.48;100.00;97048.00;5072992;28;20221;-59
2023/01/14 06:06:21;;;;;;;4.10;1.53;;;;;;;6.52;100.00;97053.06;5042773;28;20230;-59
2023/01/14 06:08:48;;;;;;;6.00;1.40;;;;;;;6.48;99.82;97047.19;5073201;28;20206;-61
2023/01/14 06:11:15;;;;;;;4.83;1.60;;;;;;;6.46;100.00;97049.91;5071873;28;20194;-60
2023/01/14 06:13:43;;;;;;;3.63;1.70;;;;;;;6.41;100.00;97051.19;5072833;28;20198;-60
2023/01/14 06:16:10;;;;;;;3.33;1.30;;;;;;;6.35;100.00;97051.63;5071759;28;20198;-60
2023/01/14 06:18:41;;;;;;;2.77;1.53;;;;;;;6.30;100.00;97048.47;5072580;28;20551;-59
2023/01/14 06:21:09;;;;;;;7.60;1.43;;;;;;;6.23;100.00;97034.09;5072077;28;20294;-59
2023/01/14 06:23:35;;;;;;;3.90;1.23;;;;;;;6.17;100.00;97037.13;5083559;28;20211;-59
2023/01/14 06:26:02;;;;;;;3.77;1.43;;;;;;;6.11;100.00;97032.31;5091147;28;20681;-60
2023/01/14 06:28:28;;;;;;;5.23;1.67;;;;;;;6.07;100.00;97036.09;5085043;28;20556;-60
2023/01/14 06:30:56;;;;;;;2.43;1.20;;;;;;;6.02;100.00;97032.97;5078529;28;20199;-59
2023/01/14 06:33:23;;;;;;;5.17;1.50;;;;;;;5.90;100.00;97032.84;5075684;28;20202;-59
2023/01/14 06:35:50;;;;;;;4.10;1.27;;;;;;;5.79;100.00;97035.34;5078658;28;20255;-59
2023/01/14 06:38:16;;;;;;;5.00;1.40;;;;;;;5.66;100.00;97031.88;5077927;28;20259;-59
2023/01/14 06:40:43;;;;;;;2.17;1.07;;;;;;;5.56;100.00;97036.06;5076787;28;20211;-60
2023/01/14 06:43:10;;;;;;;2.17;1.60;;;;;;;5.42;100.00;97028.28;5076021;28;20202;-59
2023/01/14 06:45:37;;;;;;;3.77;1.43;;;;;;;5.30;100.00;97040.41;5077289;28;20884;-59
2023/01/14 06:48:05;;;;;;;3.20;1.20;;;;;;;5.27;100.00;97039.75;5075640;28;20871;-59
2023/01/14 06:50:31;;;;;;;2.30;0.97;;;;;;;5.12;100.00;97035.50;5071546;28;20512;-60
2023/01/14 06:53:01;;;;;;;4.23;1.10;;;;;;;4.99;100.00;97020.56;5072220;28;20252;-60
2023/01/14 06:55:28;;;;;;;1.47;0.90;;;;;;;4.93;100.00;97010.50;5072455;28;20252;-59
2023/01/14 06:57:55;;;;;;;3.77;1.40;;;;;;;4.84;100.00;97007.66;5072291;28;20206;-59
2023/01/14 07:00:22;;;;;;;8.70;1.40;;;;;;;4.78;100.00;97011.47;5072184;28;20353;-59
2023/01/14 07:02:48;;;;;;;2.73;1.20;;;;;;;4.81;100.00;97003.44;5072127;28;20627;-59
2023/01/14 07:05:17;;;;;;;2.87;1.63;;;;;;;4.84;100.00;96994.53;5072056;28;20686;-59
2023/01/14 07:07:45;;;;;;;2.00;0.80;;;;;;;4.87;100.00;96999.59;5072189;28;20202;-60
2023/01/14 07:10:12;;;;;;;1.80;1.00;;;;;;;4.90;100.00;96999.38;5071776;28;20211;-59
2023/01/14 07:12:39;;;;;;;3.20;1.33;;;;;;;4.85;100.00;97001.47;5072518;28;20195;-59
2023/01/14 07:15:06;;;;;;;3.00;1.53;;;;;;;4.83;100.00;96998.94;5071955;28;20209;-60
2023/01/14 07:17:32;;;;;;;4.13;1.80;;;;;;;4.81;100.00;97000.00;5071535;28;20217;-60
2023/01/14 07:19:59;;;;;;;2.33;1.63;;;;;;;4.77;100.00;96994.09;5071807;28;20199;-60
2023/01/14 07:22:27;;;;;;;2.47;1.50;;;;;;;4.76;100.00;96986.34;5071031;28;20211;-59
2023/01/14 07:24:53;;;;;;;4.03;1.30;;;;;;;4.74;100.00;96981.22;5069950;28;20317;-59
2023/01/14 07:27:20;;;;;;;3.57;1.50;;;;;;;4.70;100.00;96982.34;5071594;28;20309;-58
2023/01/14 07:29:46;;;;;;;4.20;1.40;;;;;;;4.75;100.00;96971.53;5071247;28;20650;-59
2023/01/14 07:32:13;;;;;;;2.40;1.27;;;;;;;4.78;100.00;96966.94;5071349;28;20198;-60
2023/01/14 07:34:39;;;;;;;2.10;1.23;;;;;;;4.70;100.00;96957.91;5071568;28;20198;-59
2023/01/14 07:37:06;;;;;;;6.57;1.97;;;;;;;4.75;100.00;96947.97;5071888;28;20210;-59
2023/01/14 07:39:34;;;;;;;3.93;2.27;;;;;;;4.70;100.00;96942.22;5070936;28;20210;-58
2023/01/14 07:42:00;;;;;;;4.53;2.77;;;;;;;4.68;100.00;96939.66;5071591;28;20230;-60
2023/01/14 07:44:26;;;;;;;3.13;1.97;;;;;;;4.68;100.00;96939.66;5072861;28;20222;-59
2023/01/14 07:46:54;;;;;;;2.17;1.50;;;;;;;4.73;100.00;96945.47;5072633;28;20219;-59
2023/01/14 07:49:21;;;;;;;4.63;1.63;;;;;;;4.78;100.00;96938.13;5071793;28;20233;-58
2023/01/14 07:51:47;;;;;;;3.73;1.37;;;;;;;4.82;100.00;96947.47;5072614;28;20224;-60
2023/01/14 07:54:14;;;;;;;4.17;1.57;;;;;;;4.85;100.00;96946.44;5072065;28;20210;-60
2023/01/14 07:56:42;;;;;;;2.80;1.30;;;;;;;4.97;100.00;96948.25;5071652;28;20519;-60
2023/01/14 07:59:08;;;;;;;2.33;1.30;;;;;;;5.03;100.00;96953.06;5071369;28;20210;-59
2023/01/14 08:01:35;;;;;;;3.17;0.93;;;;;;;5.12;100.00;96951.63;5071276;28;20249;-59
2023/01/14 08:04:01;;;;;;;7.67;1.53;;;;;;;5.13;100.00;96948.09;5072043;28;20202;-59
2023/01/14 08:06:28;;;;;;;2.23;1.27;;;;;;;5.13;100.00;96933.19;5072482;28;20226;-60
2023/01/14 08:08:55;;;;;;;2.83;1.00;;;;;;;5.15;100.00;96936.53;5070506;28;20210;-60
2023/01/14 08:11:22;;;;;;;4.43;1.10;;;;;;;5.23;100.00;96933.41;5070825;28;20267;-59
2023/01/14 08:13:51;;;;;;;4.83;1.57;;;;;;;5.25;100.00;96927.13;5071075;28;20648;-59
2023/01/14 08:16:18;;;;;;;1.57;1.03;;;;;;;5.33;100.00;96929.22;5070639;28;20213;-60
2023/01/14 08:18:44;;;;;;;2.47;1.37;;;;;;;5.42;100.00;96933.84;5070614;28;20206;-59
2023/01/14 08:21:11;;;;;;;2.73;1.33;;;;;;;5.44;100.00;96935.41;5071013;28;20535;-59
2023/01/14 08:23:37;;;;;;;3.00;1.30;;;;;;;5.54;100.00;96933.00;5070972;28;20535;-59
2023/01/14 08:26:06;;;;;;;2.50;1.20;;;;;;;5.61;100.00;96929.00;5070081;28;20599;-58
2023/01/14 08:28:33;;;;;;;1.87;1.13;;;;;;;5.69;100.00;96924.09;5070753;28;20217;-59
2023/01/14 08:31:04;;;;;;;3.77;1.70;;;;;;;5.80;100.00;96921.56;5070449;28;20252;-60
2023/01/14 08:33:31;;;;;;;3.67;1.67;;;;;;;5.93;100.00;96919.78;5070017;28;20194;-59
2023/01/14 08:36:01;;;;;;;4.07;1.60;;;;;;;6.02;100.00;96904.34;5071106;28;20213;-60
2023/01/14 08:38:27;;;;;;;4.50;1.73;;;;;;;6.08;100.00;96899.47;5070853;28;20795;-59
2023/01/14 08:40:54;;;;;;;3.73;1.80;;;;;;;6.17;100.00;96905.84;5071094;28;20213;-60
2023/01/14 08:43:20;;;;;;;3.67;1.80;;;;;;;6.28;100.00;96903.28;5071322;28;20206;-59
2023/01/14 08:45:47;;;;;;;4.20;1.50;;;;;;;6.33;100.00;96894.16;5070863;28;20237;-59
2023/01/14 08:48:15;;;;;;;3.73;1.67;;;;;;;6.42;100.00;96879.50;5070828;28;20206;-59
2023/01/14 08:50:41;;;;;;;3.17;1.17;;;;;;;6.54;100.00;96885.66;5071782;28;20222;-60
2023/01/14 08:53:08;;;;;;;5.73;1.70;;;;;;;6.64;100.00;96874.34;5073936;28;20194;-60
2023/01/14 08:55:34;;;;;;;2.97;1.53;;;;;;;6.73;100.00;96868.41;5088168;28;20190;-58
2023/01/14 08:58:01;;;;;;;2.80;1.53;;;;;;;6.75;100.00;96863.88;5086468;28;20210;-60
2023/01/14 09:00:27;;;;;;;2.97;1.83;;;;;;;6.71;100.00;96854.53;5085224;28;20237;-59
2023/01/14 09:02:54;;;;;;;3.43;1.87;;;;;;;6.74;100.00;96854.31;5078023;28;20202;-58
2023/01/14 09:05:22;;;;;;;3.30;1.60;;;;;;;6.74;99.52;96843.78;5078195;28;20202;-59
2023/01/14 09:18:45;;;;;;;2.20;1.50;;;;;;;6.90;96.41;96865.38;5077825;28;20546;-59
2023/01/14 09:21:13;;;;;;;2.83;1.17;;;;;;;6.99;98.80;96882.22;5078288;28;20198;-59
2023/01/14 09:23:40;;;;;;;1.97;1.30;;;;;;;7.05;100.00;96868.59;5077780;28;20198;-57
2023/01/14 09:26:07;;;;;;;2.07;1.23;;;;;;;7.12;100.00;96876.91;5076104;28;20214;-58
2023/01/14 09:28:33;;;;;;;2.53;1.00;;;;;;;7.21;100.00;96884.06;5077152;28;20301;-58
2023/01/14 09:31:00;;;;;;;2.53;1.37;;;;;;;7.27;100.00;96878.34;5077388;28;20198;-58
2023/01/14 09:33:26;;;;;;;2.47;1.80;;;;;;;7.34;97.84;96874.28;5077490;28;20198;-59
2023/01/14 09:35:53;;;;;;;2.53;1.27;;;;;;;7.42;99.88;96872.75;5077211;28;20194;-57
2023/01/14 09:38:21;;;;;;;2.43;1.33;;;;;;;7.54;99.86;96870.97;5078028;28;20212;-59
2023/01/14 09:40:48;;;;;;;4.20;1.40;;;;;;;7.56;98.48;96855.91;5078391;28;20627;-59
2023/01/14 09:43:16;;;;;;;3.37;1.47;;;;;;;7.67;97.63;96855.91;5077754;28;20213;-58
2023/01/14 09:45:43;;;;;;;3.97;1.40;;;;;;;7.77;97.64;96851.59;5078879;28;20211;-60
2023/01/14 09:48:13;;;;;;;3.57;2.30;;;;;;;7.79;96.06;96844.41;5080737;28;20210;-59
2023/01/14 09:50:56;;;;;;;2.90;1.57;;;;;;;7.88;97.94;96853.38;5081999;28;20211;-59
2023/01/14 09:53:41;;;;;;;4.40;1.67;;;;;;;7.91;95.35;96832.91;5081767;28;20574;-59
2023/01/14 09:56:13;;;;;;;3.70;1.73;;;;;;;8.04;94.68;96837.19;5081240;28;20205;-59
2023/01/14 09:58:43;;;;;;;1.47;1.17;;;;;;;8.26;92.54;96826.59;5082199;28;20253;-58
2023/01/14 10:01:15;;;;;;;2.87;1.27;;;;;;;8.66;90.04;96822.41;5080927;28;20315;-59
2023/01/14 10:03:45;;;;;;;4.07;1.43;;;;;;;8.98;86.90;96815.28;5082046;28;20217;-59
2023/01/14 10:06:14;;;;;;;3.80;1.27;;;;;;;9.07;84.62;96810.22;5080483;28;20240;-60
2023/01/14 10:08:45;;;;;;;3.07;1.20;;;;;;;9.05;85.94;96815.59;5079005;28;20190;-59
2023/01/14 10:11:12;;;;;;;2.93;1.27;;;;;;;9.06;82.93;96816.44;5077019;28;20194;-60
2023/01/14 10:13:42;;;;;;;4.07;2.33;;;;;;;9.03;82.14;96808.78;5073958;28;20206;-60
2023/01/14 10:16:12;;;;;;;2.10;1.80;;;;;;;9.05;83.85;96804.22;5073575;28;20207;-60
2023/01/14 10:18:44;;;;;;;4.57;2.00;;;;;;;9.05;85.60;96798.94;5074711;28;20213;-60
2023/01/14 10:21:17;;;;;;;2.10;1.77;;;;;;;8.98;83.61;96793.34;5077130;28;20217;-59
2023/01/14 10:23:45;;;;;;;3.33;2.13;;;;;;;8.98;84.19;96788.06;5075638;28;20213;-61
2023/01/14 10:26:13;;;;;;;2.90;1.70;;;;;;;8.88;83.67;96771.34;5077516;28;20239;-60
2023/01/14 10:28:40;;;;;;;2.67;1.70;;;;;;;8.98;83.51;96781.00;5081361;28;20626;-60
2023/01/14 10:31:07;;;;;;;3.90;1.83;;;;;;;9.09;83.82;96776.59;5081854;28;20199;-60
2023/01/14 10:33:34;;;;;;;5.33;1.60;;;;;;;9.18;83.90;96770.53;5081534;28;20191;-63
2023/01/14 10:36:03;;;;;;;4.03;1.87;;;;;;;9.23;84.51;96765.72;5073052;28;20297;-56
2023/01/14 10:38:30;;;;;;;2.33;1.57;;;;;;;9.24;85.75;96751.56;5072921;28;20217;-55
2023/01/14 10:41:01;;;;;;;2.70;1.40;;;;;;;9.25;86.50;96747.94;5072557;28;20226;-55
2023/01/14 10:43:33;;;;;;;4.30;1.67;;;;;;;9.24;85.00;96755.03;5072967;28;20556;-57
2023/01/14 10:46:00;;;;;;;10.00;6.70;;;;;;;9.35;85.75;96764.66;5072584;28;20515;-56
2023/01/14 10:48:29;;;;;;;5.00;2.37;;;;;;;9.43;85.72;96748.97;5072842;28;20305;-55
2023/01/14 10:51:34;;;;;;;4.13;2.13;;;;;;;9.49;84.58;96748.47;5072243;28;20198;-57
2023/01/14 10:54:16;;;;;;;3.93;1.83;;;;;;;9.47;84.07;96745.13;5071504;28;20226;-56
2023/01/14 10:56:47;;;;;;;2.93;1.73;;;;;;;9.53;83.96;96736.66;5069764;28;20775;-56
2023/01/14 10:59:32;;;;;;;1.93;1.30;;;;;;;9.40;83.36;96721.06;5072357;28;20194;-56
2023/01/14 11:02:00;;;;;;;1.87;1.43;;;;;;;9.55;85.08;96724.16;5071043;28;20248;-55
2023/01/14 11:04:28;;;;;;;2.20;1.50;;;;;;;9.62;82.54;96704.19;5071221;28;20213;-58
2023/01/14 11:06:55;;;;;;;3.40;1.67;;;;;;;9.66;79.58;96697.66;5072560;28;20230;-56
2023/01/14 11:09:27;;;;;;;4.00;1.50;;;;;;;9.67;80.75;96694.03;5072094;28;20316;-56
2023/01/14 11:11:54;;;;;;;1.93;1.57;;;;;;;9.71;82.59;96697.22;5072586;28;20217;-57
2023/01/14 11:14:28;;;;;;;2.03;1.57;;;;;;;9.81;80.34;96698.91;5072018;28;20221;-58
2023/01/14 11:16:54;;;;;;;1.40;1.10;;;;;;;9.86;80.68;96706.44;5072187;28;20608;-56
2023/01/14 11:19:24;;;;;;;3.30;1.60;;;;;;;9.86;80.59;96709.91;5072570;28;20217;-57
2023/01/14 11:21:52;;;;;;;2.50;1.17;;;;;;;9.90;79.49;96702.56;5074320;28;20202;-58
2023/01/14 11:24:25;;;;;;;2.87;1.20;;;;;;;10.01;77.31;96691.84;5087226;28;20202;-58
2023/01/14 11:27:01;;;;;;;1.83;1.20;;;;;;;10.08;75.30;96684.22;5073185;28;20215;-58
2023/01/14 11:29:30;;;;;;;2.93;1.40;;;;;;;10.12;72.87;96683.81;5078792;28;20207;-56
2023/01/14 11:31:58;;;;;;;2.73;1.17;;;;;;;10.14;73.40;96673.94;5074163;28;20206;-58
2023/01/14 11:34:29;;;;;;;2.50;1.50;;;;;;;10.30;74.24;96689.25;5073584;28;20202;-60
2023/01/14 11:37:04;;;;;;;3.00;1.30;;;;;;;10.53;73.94;96679.19;5072223;28;20631;-57
2023/01/14 11:39:30;;;;;;;4.47;1.40;;;;;;;10.57;72.06;96672.66;5071924;28;20527;-56
2023/01/14 11:41:58;;;;;;;2.83;1.47;;;;;;;10.65;72.71;96655.09;5071757;28;20202;-57
2023/01/14 11:44:28;;;;;;;2.43;1.17;;;;;;;10.63;71.37;96648.28;5073212;28;20210;-57
2023/01/14 11:47:19;;;;;;;1.57;1.00;;;;;;;10.69;71.02;96639.78;5079764;28;20221;-57
2023/01/14 11:49:47;;;;;;;2.70;1.30;;;;;;;10.77;72.85;96640.72;5064031;28;20941;-56
2023/01/14 11:52:19;;;;;;;1.70;1.07;;;;;;;10.77;69.02;96635.41;5074729;28;20258;-57
2023/01/14 11:54:47;;;;;;;2.77;1.13;;;;;;;10.64;67.51;96621.69;5070541;28;20199;-57
2023/01/14 11:57:15;;;;;;;3.37;1.40;;;;;;;10.71;68.25;96604.28;5071563;28;20277;-57
2023/01/14 11:59:44;;;;;;;2.23;1.23;;;;;;;10.72;67.82;96599.81;5070912;28;20295;-57
2023/01/14 12:02:14;;;;;;;1.60;1.20;;;;;;;10.80;68.12;96608.72;5061554;28;21407;-57
2023/01/14 12:04:44;;;;;;;1.50;1.20;;;;;;;10.82;69.65;96606.72;5060477;28;20267;-56
2023/01/14 12:07:14;;;;;;;1.50;1.03;;;;;;;10.90;68.29;96590.97;5060878;28;20217;-55
2023/01/14 12:09:44;;;;;;;1.90;1.20;;;;;;;10.79;64.71;96591.16;5059891;28;20206;-55
2023/01/14 12:12:16;;;;;;;1.73;1.30;;;;;;;10.73;64.05;96578.53;5061287;28;20183;-57
2023/01/14 12:17:35;;;;;;;2.23;1.50;;;;;;;10.78;64.21;96567.50;5061119;28;20316;-57